Drummond Island, MI

10:33 PM EST on December 27, 2014 (GMT -0500)
Mackinac Island | Change Station
CLOSE
Current Station
Airport
Location: Mackinac Island,
Elevation: 741 ft
Nearby Weather Stations
Active Advisory: Special Statement

Elev 741 ft 45.87 °N, 84.64 °W | Updated 17 minutes ago

Overcast
Overcast
31 °F
Feels Like 22 °F
N
10
Wind Variable Wind from WNW
Gusts 20 mph

Today
High -- | Low -- °F
--% Chance of Precip.
Yesterday
High -- | Low -- °F
Precip. -- in
8:16 AM 4:55 PM
Waxing Crescent, 43% visible
Pressure 29.91 in
Visibility 10.0 miles
Clouds Overcast 2400 ft
Windchill 22 °F
Dew Point 26 °F
Humidity 81%
Rainfall 0.34 in
Snow Depth Not available.
UV 0 out of 12
Pollen .10 out of 12
Air Quality Not available.
Flu Activity Not available.
METAR KMCD 280316Z AUTO 30009G17KT 10SM OVC024 M01/M04 A2991 RMK AO2 T10071036

More Conditions Fewer Conditions

Pressure 29.91 in
Visibility 10.0 miles
Clouds Overcast 2400 ft
Windchill 22 °F
Dew Point 26 °F
Humidity 81%
Rainfall 0.34 in
Snow Depth Not available.
UV 0 out of 12
Pollen .10 out of 12
Air Quality Not available.
Flu Activity Not available.
METAR KMCD 280316Z AUTO 30009G17KT 10SM OVC024 M01/M04 A2991 RMK AO2 T10071036

More Conditions Fewer Conditions

Nowcast | as of 10:00 PM EST on December 27, 2014

At 11 PM...cloudy. Chance of snow showers. Temperature 29. West winds 15 mph. At 1 am...cloudy. Chance of snow showers. Temperature 28. West winds 13 mph. At 3 am...mostly cloudy. Chance of snow showers. Temperature 27. West winds 11 mph. At 5 am...mostly cloudy. Chance of snow showers. Temperature 26. West winds 10 mph.

×

10-Day Weather Forecast

Almanac

Astronomy

Dec. 27, 2014 Rise Set
Actual Time
Civil Twilight
Nautical Twilight
Astronomical Twilight
Moon
Length of Visible Light
Length of Day
Tomorrow will be .
, % of the Moon is Illuminated

Today's Extremes

State Highs State Lows

Community

WunderPhotos

Upload Photos

1,781,180 photos uploaded!

WunderBlogs® & News

Nearby

Air Quality

  Air Quality AQ Index Pollutant
Not available.

Snow Depth

Station Depth Elevation

Earthquake Activity

City Distance Mag. Time & Date
Minimum magnitude displayed is 2.5.

Coastal Water Temperatures

Place Temperature

Nearby Weather Stations